createdAt,value
2022-11-20T00:01:34.300Z,84.38
2022-11-20T00:06:30.138Z,77.27
2022-11-20T00:09:01.259Z,76.60
2022-11-20T00:11:31.426Z,79.32
2022-11-20T00:14:02.250Z,67.38
2022-11-20T00:16:34.359Z,88.03
2022-11-20T00:19:02.125Z,52.97
2022-11-20T00:21:31.060Z,38.22
2022-11-20T00:23:59.445Z,27.85
2022-11-20T00:26:29.545Z,31.13
2022-11-20T00:29:02.367Z,21.63
2022-11-20T00:31:31.826Z,26.35
2022-11-20T00:33:59.474Z,35.25
2022-11-20T00:36:29.610Z,40.60
2022-11-20T00:38:59.570Z,51.38
2022-11-20T00:41:29.197Z,49.63
2022-11-20T00:43:58.000Z,58.95
2022-11-20T00:46:28.226Z,79.15
2022-11-20T00:48:56.283Z,242.68
2022-11-20T00:51:26.391Z,150.70
2022-11-20T00:53:57.362Z,255.82
2022-11-20T00:56:24.991Z,270.15
2022-11-20T00:58:52.723Z,153.27
2022-11-20T01:01:25.535Z,238.57
2022-11-20T01:03:55.709Z,137.80
2022-11-20T01:06:29.187Z,115.80
2022-11-20T01:09:00.922Z,66.28
2022-11-20T01:11:32.487Z,61.65
2022-11-20T01:14:03.089Z,38.17
2022-11-20T01:16:41.398Z,36.33
2022-11-20T01:19:17.929Z,48.50
2022-11-20T01:21:48.671Z,43.83
2022-11-20T01:24:19.519Z,40.55
2022-11-20T01:26:51.165Z,36.97
2022-11-20T01:29:25.588Z,36.58
2022-11-20T01:31:53.876Z,28.75
2022-11-20T01:34:23.674Z,28.48
2022-11-20T01:36:53.704Z,23.75
2022-11-20T01:39:27.044Z,23.88
2022-11-20T01:42:14.986Z,21.33
2022-11-20T01:45:00.095Z,17.42
2022-11-20T01:47:44.581Z,16.02
2022-11-20T01:50:26.896Z,15.98
2022-11-20T01:53:04.802Z,15.20
2022-11-20T01:55:38.841Z,16.00
2022-11-20T01:58:07.165Z,16.83
2022-11-20T02:00:34.794Z,16.08
2022-11-20T02:03:15.447Z,14.17
2022-11-20T02:06:01.990Z,11.00
2022-11-20T02:08:31.393Z,11.07
2022-11-20T02:10:59.111Z,10.95
2022-11-20T02:13:45.402Z,9.57
2022-11-20T02:16:22.679Z,11.25
2022-11-20T02:18:51.477Z,7.95
2022-11-20T02:21:37.220Z,9.38
2022-11-20T02:24:18.344Z,8.88
2022-11-20T02:26:51.681Z,10.40
2022-11-20T02:29:28.753Z,11.32
2022-11-20T02:31:58.906Z,15.23
2022-11-20T02:34:26.457Z,9.75
2022-11-20T02:36:54.532Z,10.50
2022-11-20T02:39:25.857Z,11.63
2022-11-20T02:41:58.152Z,10.10
2022-11-20T02:44:26.221Z,14.68
2022-11-20T02:46:53.810Z,11.25
2022-11-20T02:49:21.976Z,11.02
2022-11-20T02:51:49.733Z,12.13
2022-11-20T02:54:17.248Z,14.23
2022-11-20T02:56:45.057Z,13.90
2022-11-20T02:59:13.183Z,11.57
2022-11-20T03:01:40.804Z,15.57
2022-11-20T03:04:08.933Z,11.13
2022-11-20T03:06:36.565Z,16.48
2022-11-20T03:09:04.264Z,13.33
2022-11-20T03:11:33.299Z,13.17
2022-11-20T03:14:05.547Z,12.85
2022-11-20T03:16:33.780Z,12.60
2022-11-20T03:19:01.723Z,11.50
2022-11-20T03:21:29.439Z,11.00
2022-11-20T03:23:57.077Z,10.25
2022-11-20T03:26:28.048Z,9.70
2022-11-20T03:29:01.981Z,8.25
2022-11-20T03:31:42.775Z,9.35
2022-11-20T03:34:12.715Z,9.15
2022-11-20T03:36:43.008Z,23.80
2022-11-20T03:39:11.096Z,8.77
2022-11-20T03:41:41.905Z,9.68
2022-11-20T03:44:12.293Z,10.82
2022-11-20T03:46:40.352Z,10.80
2022-11-20T03:49:07.971Z,14.18
2022-11-20T03:51:37.536Z,13.10
2022-11-20T03:54:09.207Z,11.63
2022-11-20T03:56:40.103Z,14.25
2022-11-20T03:59:11.083Z,13.18
2022-11-20T04:01:38.986Z,13.00
2022-11-20T04:04:06.745Z,15.90
2022-11-20T04:06:39.056Z,18.58
2022-11-20T04:09:07.411Z,22.65
2022-11-20T04:11:40.489Z,15.27
2022-11-20T04:14:17.274Z,17.33
2022-11-20T04:16:45.041Z,16.00
2022-11-20T04:19:16.486Z,20.05
2022-11-20T04:21:45.646Z,15.82
2022-11-20T04:24:13.564Z,16.80
2022-11-20T04:26:41.547Z,12.73
2022-11-20T04:29:12.960Z,15.68
2022-11-20T04:31:40.569Z,10.38
2022-11-20T04:34:08.722Z,15.83
2022-11-20T04:36:36.313Z,13.57
2022-11-20T04:39:07.237Z,12.10
2022-11-20T04:41:37.386Z,12.00
2022-11-20T04:44:06.765Z,8.20
2022-11-20T04:46:39.152Z,9.48
2022-11-20T04:49:08.207Z,8.48
2022-11-20T04:51:35.938Z,8.45
2022-11-20T04:54:03.957Z,7.68
2022-11-20T04:56:31.525Z,7.22
2022-11-20T04:59:02.598Z,7.38
2022-11-20T05:01:30.743Z,6.43
2022-11-20T05:03:59.592Z,10.35
2022-11-20T05:06:27.238Z,6.55
2022-11-20T05:08:54.777Z,8.50
2022-11-20T05:11:22.561Z,10.07
2022-11-20T05:13:52.603Z,8.88
2022-11-20T05:16:23.770Z,9.32
2022-11-20T05:18:54.398Z,11.68
2022-11-20T05:21:23.468Z,9.90
2022-11-20T05:23:50.993Z,10.45
2022-11-20T05:26:24.872Z,11.68
2022-11-20T05:28:53.141Z,11.85
2022-11-20T05:31:28.017Z,12.32
2022-11-20T05:33:58.029Z,11.10
2022-11-20T05:36:25.854Z,10.60
2022-11-20T05:38:58.011Z,12.20
2022-11-20T05:41:27.513Z,14.52
2022-11-20T05:43:55.009Z,19.00
2022-11-20T05:46:28.338Z,53.15
2022-11-20T05:48:58.913Z,13.25
2022-11-20T05:51:27.305Z,12.63
2022-11-20T05:53:57.646Z,13.73
2022-11-20T05:56:25.366Z,8.75
2022-11-20T05:58:52.854Z,8.32
2022-11-20T06:01:26.183Z,10.25
2022-11-20T06:03:55.152Z,9.00
2022-11-20T06:06:25.361Z,16.75
2022-11-20T06:08:53.037Z,12.27
2022-11-20T06:11:20.734Z,16.07
2022-11-20T06:13:49.219Z,11.07
2022-11-20T06:18:47.606Z,7.97
2022-11-20T06:21:19.715Z,8.38
2022-11-20T06:23:48.312Z,11.30
2022-11-20T06:28:47.020Z,8.68
2022-11-20T06:31:17.861Z,7.90
2022-11-20T06:33:46.146Z,7.95
2022-11-20T06:36:17.214Z,7.55
2022-11-20T06:38:45.398Z,6.72
2022-11-20T06:41:22.103Z,7.75
2022-11-20T06:43:50.572Z,7.88
2022-11-20T06:48:48.787Z,7.68
2022-11-20T06:51:17.146Z,6.22
2022-11-20T06:53:44.662Z,7.40
2022-11-20T06:56:12.185Z,5.82
2022-11-20T06:58:39.685Z,6.82
2022-11-20T07:01:12.011Z,7.43
2022-11-20T07:03:40.696Z,5.90
2022-11-20T07:06:09.273Z,7.93
2022-11-20T07:11:07.693Z,5.95
2022-11-20T07:13:35.877Z,7.38
2022-11-20T07:16:08.276Z,14.35
2022-11-20T07:18:36.827Z,16.17
2022-11-20T07:23:34.602Z,7.05
2022-11-20T07:26:07.703Z,14.30
2022-11-20T07:28:35.978Z,13.18
2022-11-20T07:31:05.820Z,12.77
2022-11-20T07:33:33.875Z,7.55
2022-11-20T07:36:01.736Z,5.80
2022-11-20T07:38:29.419Z,9.70
2022-11-20T07:41:02.488Z,6.30
2022-11-20T07:43:31.094Z,11.60
2022-11-20T07:50:58.119Z,5.95
2022-11-20T07:53:26.133Z,9.02
2022-11-20T07:55:53.867Z,13.55
2022-11-20T07:58:22.659Z,7.85
2022-11-20T08:00:50.700Z,4.68
2022-11-20T08:03:24.362Z,4.93
2022-11-20T08:05:53.088Z,5.25
2022-11-20T08:08:21.762Z,4.45
2022-11-20T08:10:49.366Z,5.68
2022-11-20T08:13:35.176Z,8.33
2022-11-20T08:16:02.700Z,8.13
2022-11-20T08:18:32.282Z,7.38
2022-11-20T08:21:05.120Z,4.53
2022-11-20T08:23:32.977Z,4.85
2022-11-20T08:26:00.529Z,6.15
2022-11-20T08:28:28.010Z,5.07
2022-11-20T08:31:01.730Z,5.18
2022-11-20T08:33:30.135Z,4.65
2022-11-20T08:36:06.298Z,5.93
2022-11-20T08:38:33.998Z,6.97
2022-11-20T08:41:22.830Z,4.57
2022-11-20T08:43:53.885Z,6.55
2022-11-20T08:46:21.782Z,5.38
2022-11-20T08:48:49.433Z,6.60
2022-11-20T08:51:18.151Z,15.00
2022-11-20T08:53:46.399Z,10.98
2022-11-20T08:56:14.013Z,9.40
2022-11-20T08:59:15.402Z,14.50
2022-11-20T09:01:30.684Z,5.80
2022-11-20T09:03:58.446Z,7.47
2022-11-20T09:06:26.806Z,5.57
2022-11-20T09:08:55.788Z,5.80
2022-11-20T09:11:23.768Z,5.63
2022-11-20T09:13:51.853Z,5.50
2022-11-20T09:16:19.518Z,4.35
2022-11-20T09:18:47.176Z,4.73
2022-11-20T09:21:15.285Z,5.30
2022-11-20T09:23:42.900Z,4.53
2022-11-20T09:26:13.440Z,5.10
2022-11-20T09:28:41.531Z,6.00
2022-11-20T09:31:18.864Z,4.07
2022-11-20T09:33:46.474Z,4.43
2022-11-20T09:36:14.226Z,4.53
2022-11-20T09:38:41.810Z,5.90
2022-11-20T09:41:49.258Z,8.30
2022-11-20T09:45:08.233Z,16.05
2022-11-20T09:48:12.150Z,16.15
2022-11-20T09:50:55.053Z,12.57
2022-11-20T09:53:53.751Z,12.77
2022-11-20T09:56:22.987Z,10.70
2022-11-20T09:58:55.651Z,12.40
2022-11-20T10:01:31.686Z,10.38
2022-11-20T10:04:17.616Z,14.77
2022-11-20T10:07:30.735Z,12.95
2022-11-20T10:09:55.988Z,12.15
2022-11-20T10:12:35.627Z,36.20
2022-11-20T10:15:08.885Z,17.15
2022-11-20T10:18:18.151Z,35.45
2022-11-20T10:21:10.768Z,21.85
2022-11-20T10:24:08.258Z,42.60
2022-11-20T10:27:12.419Z,22.55
2022-11-20T10:29:48.727Z,19.35
2022-11-20T10:32:21.161Z,15.45
2022-11-20T10:35:02.880Z,16.00
2022-11-20T10:37:34.995Z,14.05
2022-11-20T10:40:36.232Z,20.45
2022-11-20T10:43:18.783Z,18.00
2022-11-20T10:45:52.443Z,10.43
2022-11-20T10:48:29.196Z,12.50
2022-11-20T10:51:38.920Z,10.00
2022-11-20T10:55:07.264Z,8.40
2022-11-20T10:58:02.944Z,11.10
2022-11-20T11:00:37.353Z,12.25
2022-11-20T11:03:29.927Z,12.15
2022-11-20T11:06:39.199Z,12.00
2022-11-20T11:09:36.784Z,16.60
2022-11-20T11:12:10.262Z,9.80
2022-11-20T11:14:53.444Z,7.95
2022-11-20T11:17:31.645Z,8.40
2022-11-20T11:20:12.083Z,9.52
2022-11-20T11:22:56.150Z,13.25
2022-11-20T11:25:28.149Z,12.52
2022-11-20T11:28:03.495Z,11.95
2022-11-20T11:30:43.850Z,10.40
2022-11-20T11:33:20.732Z,11.05
2022-11-20T11:35:58.310Z,20.30
2022-11-20T11:38:44.092Z,9.70
2022-11-20T11:41:22.770Z,34.85
2022-11-20T11:44:19.834Z,33.45
2022-11-20T11:46:59.068Z,17.92
2022-11-20T11:49:26.922Z,11.63
2022-11-20T11:52:08.591Z,12.63
2022-11-20T11:54:45.118Z,8.73
2022-11-20T11:57:27.599Z,18.55
2022-11-20T12:00:11.591Z,14.32
2022-11-20T12:02:50.676Z,21.05
2022-11-20T12:06:06.484Z,23.05
2022-11-20T12:08:51.716Z,17.20
2022-11-20T12:12:02.733Z,16.33
2022-11-20T12:14:41.297Z,18.83
2022-11-20T12:17:14.281Z,22.83
2022-11-20T12:19:43.149Z,18.83
2022-11-20T12:22:22.654Z,17.83
2022-11-20T12:25:22.754Z,21.67
2022-11-20T12:28:15.190Z,16.92
2022-11-20T12:31:10.855Z,11.50
2022-11-20T12:33:52.190Z,13.02
2022-11-20T12:36:42.104Z,18.00
2022-11-20T12:39:35.448Z,14.65
2022-11-20T12:43:07.858Z,12.70
2022-11-20T12:46:06.642Z,11.98
2022-11-20T12:49:33.574Z,14.50
2022-11-20T12:52:42.616Z,11.85
2022-11-20T12:55:35.580Z,11.30
2022-11-20T12:58:20.124Z,11.48
2022-11-20T13:01:42.051Z,13.77
2022-11-20T13:04:22.799Z,12.18
2022-11-20T13:06:52.157Z,9.88
2022-11-20T13:09:24.284Z,15.23
2022-11-20T13:12:16.750Z,11.05
2022-11-20T13:14:59.645Z,11.68
2022-11-20T13:17:41.587Z,10.98
2022-11-20T13:20:17.833Z,16.33
2022-11-20T13:22:53.018Z,14.50
2022-11-20T13:25:41.109Z,13.07
2022-11-20T13:28:11.724Z,9.63
2022-11-20T13:30:53.176Z,7.53
2022-11-20T13:33:32.480Z,8.82
2022-11-20T13:36:24.578Z,8.30
2022-11-20T13:38:55.579Z,7.28
2022-11-20T13:41:41.037Z,7.95
2022-11-20T13:44:26.020Z,9.63
2022-11-20T13:46:54.802Z,6.15
2022-11-20T13:52:35.053Z,7.03
2022-11-20T13:55:46.739Z,8.25
2022-11-20T13:59:05.055Z,7.93
2022-11-20T14:01:35.007Z,8.73
2022-11-20T14:04:10.332Z,7.18
2022-11-20T14:06:45.704Z,10.90
2022-11-20T14:09:29.285Z,13.52
2022-11-20T14:11:57.807Z,8.57
2022-11-20T14:14:31.225Z,12.00
2022-11-20T14:17:19.354Z,20.25
2022-11-20T14:19:50.374Z,22.55
2022-11-20T14:22:25.931Z,27.52
2022-11-20T14:25:13.682Z,16.02
2022-11-20T14:27:45.906Z,15.40
2022-11-20T14:30:21.680Z,11.75
2022-11-20T14:32:51.729Z,18.10
2022-11-20T14:35:27.524Z,9.98
2022-11-20T14:37:56.975Z,10.80
2022-11-20T14:40:36.954Z,14.73
2022-11-20T14:43:28.016Z,12.40
2022-11-20T14:46:15.139Z,9.73
2022-11-20T14:48:50.703Z,7.78
2022-11-20T14:51:43.145Z,7.93
2022-11-20T14:54:10.999Z,6.82
2022-11-20T14:56:38.897Z,7.85
2022-11-20T14:59:06.911Z,9.70
2022-11-20T15:01:36.069Z,7.03
2022-11-20T15:04:10.355Z,8.65
2022-11-20T15:06:50.701Z,13.45
2022-11-20T15:09:18.403Z,22.88
2022-11-20T15:12:02.436Z,15.27
2022-11-20T15:14:33.553Z,12.82
2022-11-20T15:17:01.456Z,13.30
2022-11-20T15:19:29.133Z,9.95
2022-11-20T15:21:57.365Z,8.63
2022-11-20T15:24:25.281Z,16.73
2022-11-20T15:26:53.215Z,10.77
2022-11-20T15:29:24.230Z,12.83
2022-11-20T15:31:53.664Z,14.60
2022-11-20T15:34:21.534Z,18.00
2022-11-20T15:36:49.333Z,17.77
2022-11-20T15:39:16.842Z,23.73
2022-11-20T15:41:44.503Z,23.77
2022-11-20T15:44:12.217Z,30.10
2022-11-20T15:46:45.526Z,28.33
2022-11-20T15:49:17.563Z,21.52
2022-11-20T15:51:50.121Z,15.50
2022-11-20T15:54:23.975Z,16.38
2022-11-20T15:56:55.099Z,22.02
2022-11-20T15:59:22.832Z,19.65
2022-11-20T16:01:50.549Z,34.55
2022-11-20T16:04:19.368Z,38.15
2022-11-20T16:06:47.525Z,55.15
2022-11-20T16:09:15.099Z,67.60
2022-11-20T16:11:42.673Z,67.10
2022-11-20T16:14:31.053Z,47.85
2022-11-20T16:19:26.253Z,33.83
2022-11-20T16:21:57.057Z,43.00
2022-11-20T16:24:27.619Z,39.22
2022-11-20T16:26:56.042Z,39.30
2022-11-20T16:29:23.672Z,23.85
2022-11-20T16:31:51.293Z,13.40
2022-11-20T16:34:19.613Z,18.33
2022-11-20T16:36:47.175Z,18.77
2022-11-20T16:39:21.966Z,16.58
2022-11-20T16:41:51.367Z,9.50
2022-11-20T16:44:19.032Z,12.43
2022-11-20T16:46:46.579Z,10.07
2022-11-20T16:49:15.556Z,13.32
2022-11-20T16:51:43.232Z,14.30
2022-11-20T16:54:15.052Z,12.43
2022-11-20T16:56:47.971Z,14.15
2022-11-20T16:59:15.640Z,11.48
2022-11-20T17:01:44.125Z,9.73
2022-11-20T17:06:47.835Z,17.27
2022-11-20T17:09:15.496Z,19.17
2022-11-20T17:11:43.637Z,22.67
2022-11-20T17:14:12.519Z,15.02
2022-11-20T17:16:40.758Z,21.10
2022-11-20T17:19:08.966Z,21.88
2022-11-20T17:21:37.953Z,20.30
2022-11-20T17:24:12.058Z,20.73
2022-11-20T17:26:42.480Z,21.67
2022-11-20T17:29:17.313Z,31.50
2022-11-20T17:31:46.258Z,21.35
2022-11-20T17:34:15.638Z,17.75
2022-11-20T17:36:47.232Z,17.02
2022-11-20T17:39:16.783Z,33.28
2022-11-20T17:41:44.806Z,28.30
2022-11-20T17:44:13.488Z,22.05
2022-11-20T17:49:08.830Z,19.58
2022-11-20T17:51:36.584Z,15.50
2022-11-20T17:54:07.603Z,16.67
2022-11-20T17:56:54.533Z,17.75
2022-11-20T17:59:22.699Z,12.13
2022-11-20T18:01:50.599Z,13.55
2022-11-20T18:04:18.387Z,13.98
2022-11-20T18:06:46.378Z,16.47
2022-11-20T18:09:13.981Z,10.32
2022-11-20T18:11:43.613Z,14.88
2022-11-20T18:14:48.031Z,10.82
2022-11-20T18:17:16.120Z,11.77
2022-11-20T18:20:07.238Z,12.07
2022-11-20T18:22:37.166Z,9.27
2022-11-20T18:27:32.821Z,11.35
2022-11-20T18:30:00.289Z,17.63
2022-11-20T18:32:27.890Z,16.73
2022-11-20T18:34:55.445Z,11.77
2022-11-20T18:37:23.006Z,12.93
2022-11-20T18:39:50.791Z,8.93
2022-11-20T18:42:36.556Z,11.15
2022-11-20T18:45:05.605Z,14.77
2022-11-20T18:47:38.004Z,10.07
2022-11-20T18:50:08.832Z,10.30
2022-11-20T18:52:47.870Z,15.57
2022-11-20T18:55:16.406Z,15.00
2022-11-20T19:00:15.164Z,21.83
2022-11-20T19:05:30.663Z,64.53
2022-11-20T19:07:58.284Z,53.97
2022-11-20T19:10:27.248Z,34.80
2022-11-20T19:12:55.206Z,26.45
2022-11-20T19:15:22.748Z,22.85
2022-11-20T19:17:50.364Z,16.95
2022-11-20T19:20:19.038Z,20.63
2022-11-20T19:22:51.359Z,14.57
2022-11-20T19:25:20.508Z,13.18
2022-11-20T19:27:48.173Z,25.02
2022-11-20T19:30:16.333Z,24.42
2022-11-20T19:32:43.973Z,16.48
2022-11-20T19:35:11.686Z,19.03
2022-11-20T19:37:39.682Z,15.23
2022-11-20T19:40:08.202Z,17.92
2022-11-20T19:45:05.556Z,15.50
2022-11-20T19:48:06.112Z,13.43
2022-11-20T19:50:22.287Z,18.55
2022-11-20T19:55:23.476Z,26.67
2022-11-20T19:57:51.335Z,12.73
2022-11-20T20:00:26.615Z,9.80
2022-11-20T20:02:59.695Z,11.90
2022-11-20T20:05:27.561Z,15.32
2022-11-20T20:07:55.118Z,7.97
2022-11-20T20:10:22.780Z,13.65
2022-11-20T20:12:50.378Z,30.17
2022-11-20T20:15:18.037Z,15.75
2022-11-20T20:17:45.656Z,15.17
2022-11-20T20:20:13.240Z,17.00
2022-11-20T20:22:40.709Z,16.10
2022-11-20T20:25:08.576Z,18.05
2022-11-20T20:27:37.900Z,15.77
2022-11-20T20:30:11.986Z,11.80
2022-11-20T20:32:39.748Z,10.48
2022-11-20T20:35:08.663Z,8.57
2022-11-20T20:37:36.439Z,9.32
2022-11-20T20:40:04.631Z,13.13
2022-11-20T20:42:32.869Z,11.68
2022-11-20T20:45:11.399Z,10.10
2022-11-20T20:50:12.065Z,10.82
2022-11-20T20:52:39.942Z,7.25
2022-11-20T20:55:08.333Z,9.55
2022-11-20T20:57:36.088Z,10.02
2022-11-20T21:00:06.470Z,16.27
2022-11-20T21:02:34.074Z,22.63
2022-11-20T21:05:01.627Z,18.90
2022-11-20T21:07:29.246Z,16.10
2022-11-20T21:09:56.757Z,10.70
2022-11-20T21:12:24.292Z,12.27
2022-11-20T21:14:51.868Z,7.72
2022-11-20T21:17:19.523Z,9.57
2022-11-20T21:19:47.152Z,12.17
2022-11-20T21:22:14.824Z,15.63
2022-11-20T21:24:43.309Z,14.30
2022-11-20T21:27:10.846Z,11.50
2022-11-20T21:29:38.533Z,11.18
2022-11-20T21:32:06.046Z,13.27
2022-11-20T21:34:33.699Z,15.43
2022-11-20T21:37:01.300Z,10.30
2022-11-20T21:39:30.643Z,11.52
2022-11-20T21:41:58.282Z,11.68
2022-11-20T21:44:33.037Z,9.43
2022-11-20T21:47:00.525Z,11.27
2022-11-20T21:49:28.295Z,10.80
2022-11-20T21:51:55.967Z,14.85
2022-11-20T21:54:23.954Z,13.70
2022-11-20T21:56:51.779Z,17.73
2022-11-20T21:59:19.328Z,18.07
2022-11-20T22:01:47.062Z,17.42
2022-11-20T22:04:16.532Z,15.07
2022-11-20T22:06:44.893Z,9.93
2022-11-20T22:09:13.729Z,13.43
2022-11-20T22:11:41.493Z,10.45
2022-11-20T22:14:20.391Z,10.68
2022-11-20T22:16:50.389Z,10.13
2022-11-20T22:19:20.612Z,10.27
2022-11-20T22:21:50.751Z,9.05
2022-11-20T22:24:22.510Z,7.95
2022-11-20T22:26:51.841Z,8.40
2022-11-20T22:29:21.472Z,7.47
2022-11-20T22:31:52.368Z,7.75
2022-11-20T22:34:20.266Z,9.27
2022-11-20T22:36:48.014Z,14.68
2022-11-20T22:39:19.357Z,12.18
2022-11-20T22:41:47.679Z,11.95
2022-11-20T22:44:16.642Z,16.38
2022-11-20T22:46:44.315Z,12.93
2022-11-20T22:51:41.877Z,15.48
2022-11-20T22:54:13.344Z,23.67
2022-11-20T22:56:41.875Z,18.25
2022-11-20T23:01:38.512Z,19.65
2022-11-20T23:06:38.628Z,34.75
2022-11-20T23:09:08.703Z,32.95
2022-11-20T23:11:36.839Z,32.53
2022-11-20T23:14:12.522Z,31.60
2022-11-20T23:16:40.670Z,13.05
2022-11-20T23:19:13.397Z,16.48
2022-11-20T23:21:43.400Z,15.20
2022-11-20T23:24:11.768Z,25.83
2022-11-20T23:26:41.367Z,17.35
2022-11-20T23:29:09.265Z,16.85
2022-11-20T23:31:38.333Z,34.08
2022-11-20T23:34:05.930Z,8.52
2022-11-20T23:36:33.807Z,10.13
2022-11-20T23:39:01.421Z,12.48
2022-11-20T23:41:32.734Z,9.52
2022-11-20T23:44:00.301Z,8.55
2022-11-20T23:46:28.058Z,7.45
2022-11-20T23:48:55.690Z,7.78
2022-11-20T23:51:24.345Z,7.60
2022-11-20T23:53:52.620Z,7.85
2022-11-20T23:56:20.248Z,6.88
